Logrono, Spain
Current Conditions -  °F | °C
As of 9:00 AM on Saturday 29 Nov 2014 (Local Time) from LELO Reporting Station
Light Rain Light Rain  
Wind Chill: 55°   Ceiling: 2700
Heat Index: 55°   Visibility: 5mi
Dew Point: 52°   Wind: 12mph
Humidity: 88%   Direction: 50°NE
Pressure: 29.41"   Gusts: 24mph
Location:  42.47°N, 2.45°W
Report Text: LELO 290800Z 05010G21KT 010V080 8000 -RA FEW022 BKN027OVC035 13/11 Q0996
Loading
Personal Weather Stations






























Interactive Weather Map New forecast layout! Learn more

10-Day Weather Forecast

Advertisements
Track Severe Weather on mobile